Time;durP1;ratioP1;P1;durP2;ratioP2;P2;SDS_P1;SDS_P2;PMS_P1;PMS_P2;Temp;Humidity;BMP_temperature;BMP_pressure;BME280_temperature;BME280_humidity;BME280_pressure;Samples;Min_cycle;Max_cycle;Signal;HPM_P1;HPM_P2
2023/04/13 00:00:52;;;;;;;20.00;17.90;;;;;;;11.82;100.00;98058.64;105970;1258;61874;-85
2023/04/13 00:03:20;;;;;;;;;;;;;;;11.85;100.00;98050.65;105937;1258;60485;-83
2023/04/13 00:05:51;;;;;;;21.50;17.20;;;;;;;11.99;100.00;98044.69;105811;1257;73530;-85
2023/04/13 00:08:23;;;;;;;21.90;16.50;;;;;;;12.06;100.00;98049.00;105798;1260;68820;-85
2023/04/13 00:10:56;;;;;;;25.20;18.60;;;;;;;12.03;100.00;98044.81;105833;1257;73006;-85
2023/04/13 00:13:24;;;;;;;26.60;19.90;;;;;;;12.05;100.00;98040.32;105799;1257;63085;-85
2023/04/13 00:15:54;;;;;;;28.50;21.00;;;;;;;11.91;100.00;98034.73;105931;1257;61065;-85
2023/04/13 00:18:24;;;;;;;31.90;20.30;;;;;;;12.02;100.00;98029.79;106204;1262;75037;-84
2023/04/13 00:20:53;;;;;;;23.60;17.70;;;;;;;12.00;100.00;98023.31;106310;1267;68625;-84
2023/04/13 00:23:21;;;;;;;23.20;17.60;;;;;;;12.02;100.00;98020.80;106733;1261;71691;-83
2023/04/13 00:25:55;;;;;;;25.10;18.90;;;;;;;12.11;100.00;98015.67;106510;1257;62293;-83
2023/04/13 00:28:24;;;;;;;26.20;18.80;;;;;;;12.17;100.00;98016.30;106461;1257;61182;-82
2023/04/13 00:30:52;;;;;;;27.10;18.60;;;;;;;12.07;100.00;98007.94;106045;1261;74272;-83
2023/04/13 00:33:20;;;;;;;;;;;;;;;12.19;100.00;98004.11;105967;1257;69522;-83
2023/04/13 00:35:49;;;;;;;27.50;18.00;;;;;;;12.23;100.00;98002.55;105953;1258;73507;-85
2023/04/13 00:38:17;;;;;;;32.30;21.00;;;;;;;12.41;100.00;98001.41;105963;1262;60413;-85
2023/04/13 00:40:47;;;;;;;29.60;19.80;;;;;;;12.57;100.00;98001.20;105993;1259;61053;-84
2023/04/13 00:43:15;;;;;;;27.30;20.60;;;;;;;12.80;100.00;98004.70;105987;1261;73977;-84
2023/04/13 00:45:44;;;;;;;34.40;23.00;;;;;;;12.59;100.00;98007.41;105974;1257;69924;-84
2023/04/13 00:48:18;;;;;;;34.40;24.40;;;;;;;12.67;100.00;98011.84;105956;1257;73793;-84
2023/04/13 00:50:47;;;;;;;39.50;26.50;;;;;;;12.87;100.00;98017.31;105704;1264;61762;-85
2023/04/13 00:53:16;;;;;;;41.50;27.00;;;;;;;12.73;100.00;98022.59;105977;1257;60789;-86
2023/04/13 00:55:44;;;;;;;99.70;48.80;;;;;;;12.19;100.00;98030.63;106069;1259;74526;-85
2023/04/13 00:58:13;;;;;;;110.20;51.60;;;;;;;12.11;100.00;98036.27;105789;1260;68418;-85
2023/04/13 01:00:42;;;;;;;79.00;41.70;;;;;;;11.89;100.00;98040.93;106011;1257;71983;-87
2023/04/13 01:03:12;;;;;;;109.10;50.70;;;;;;;12.26;100.00;98048.48;106062;1262;62039;-85
2023/04/13 01:05:49;;;;;;;94.70;46.20;;;;;;;11.85;100.00;98042.63;105724;1257;60473;-85
2023/04/13 01:09:09;;;;;;;73.60;38.40;;;;;;;11.75;100.00;98044.85;106056;1260;73719;-84
2023/04/13 01:11:42;;;;;;;81.80;45.50;;;;;;;11.97;100.00;98044.55;105250;1270;68649;-84
2023/04/13 01:14:32;;;;;;;55.20;34.50;;;;;;;12.30;100.00;98048.83;105209;1266;73752;-86
2023/04/13 01:17:07;;;;;;;35.50;23.70;;;;;;;12.62;100.00;98049.10;105344;1265;62600;-88
2023/04/13 01:20:10;;;;;;;43.60;28.30;;;;;;;12.57;100.00;98052.98;105266;1266;61014;-85
2023/04/13 01:22:44;;;;;;;33.10;21.90;;;;;;;11.98;100.00;98052.08;105240;1267;72913;-85
2023/04/13 01:25:30;;;;;;;29.90;20.00;;;;;;;11.83;100.00;98050.02;105235;1265;69069;-85
2023/04/13 01:28:08;;;;;;;24.90;18.10;;;;;;;11.78;100.00;98046.63;105251;1265;73429;-84
2023/04/13 01:30:38;;;;;;;23.90;17.50;;;;;;;12.13;100.00;98049.02;105283;1265;63491;-85
2023/04/13 01:33:08;;;;;;;21.90;17.90;;;;;;;12.11;100.00;98047.89;105252;1266;61516;-86
2023/04/13 01:35:38;;;;;;;32.90;18.70;;;;;;;12.08;100.00;98047.94;105320;1266;75150;-85
2023/04/13 01:38:08;;;;;;;23.10;16.30;;;;;;;11.80;100.00;98044.66;105427;1270;68910;-87
2023/04/13 01:40:40;;;;;;;27.70;19.30;;;;;;;11.96;100.00;98047.27;105379;1265;72996;-84
2023/04/13 01:43:10;;;;;;;31.00;16.80;;;;;;;11.94;100.00;98049.29;105346;1265;61302;-84
2023/04/13 01:46:00;;;;;;;23.90;17.20;;;;;;;12.65;100.00;98051.53;105375;1265;60490;-84
2023/04/13 01:48:50;;;;;;;31.90;20.70;;;;;;;12.76;100.00;98052.29;105807;1260;73992;-84
2023/04/13 01:51:44;;;;;;;30.10;18.70;;;;;;;12.69;100.00;98054.17;105732;1257;69170;-84
2023/04/13 01:54:19;;;;;;;24.00;16.70;;;;;;;12.89;100.00;98052.69;105939;1260;73590;-84
2023/04/13 01:56:49;;;;;;;23.80;18.10;;;;;;;13.14;100.00;98051.41;106012;1258;61901;-85
2023/04/13 01:59:19;;;;;;;28.50;18.00;;;;;;;12.98;100.00;98049.29;105546;1260;62077;-85
2023/04/13 02:01:47;;;;;;;24.70;18.40;;;;;;;12.53;100.00;98048.23;105900;1260;74134;-86
2023/04/13 02:04:17;;;;;;;23.20;17.90;;;;;;;12.08;100.00;98041.71;105701;1263;68674;-86
2023/04/13 02:06:47;;;;;;;21.60;17.70;;;;;;;12.38;100.00;98046.79;105666;1257;72306;-84
2023/04/13 02:09:15;;;;;;;;;;;;;;;12.03;100.00;98049.77;105904;1257;62955;-84
2023/04/13 02:11:45;;;;;;;30.40;19.00;;;;;;;12.16;100.00;98057.45;106022;1260;60848;-83
2023/04/13 02:14:24;;;;;;;27.10;19.70;;;;;;;12.36;100.00;98064.30;105736;1262;74958;-85
2023/04/13 02:16:56;;;;;;;22.40;17.80;;;;;;;12.05;100.00;98058.32;106062;1258;68596;-84
2023/04/13 02:19:24;;;;;;;28.40;18.70;;;;;;;12.38;100.00;98058.50;106046;1258;73605;-84
2023/04/13 02:21:56;;;;;;;22.20;17.90;;;;;;;11.94;100.00;98056.53;105701;1258;62002;-85
2023/04/13 02:24:24;;;;;;;28.70;18.10;;;;;;;12.67;100.00;98055.67;106037;1260;61075;-85
2023/04/13 02:26:55;;;;;;;21.20;17.10;;;;;;;12.66;100.00;98053.90;105970;1262;74984;-85
2023/04/13 02:29:23;;;;;;;20.30;15.50;;;;;;;12.68;100.00;98051.14;105912;1262;67916;-82
2023/04/13 02:31:53;;;;;;;30.20;17.90;;;;;;;13.12;100.00;98053.49;105815;1260;73425;-84
2023/04/13 02:34:21;;;;;;;20.20;16.70;;;;;;;12.43;100.00;98048.84;105770;1258;63046;-83
2023/04/13 02:36:50;;;;;;;;;;;;;;;12.20;100.00;98042.16;105636;1265;60467;-84
2023/04/13 02:39:25;;;;;;;26.40;18.70;;;;;;;12.65;100.00;98048.52;105935;1260;74789;-84
2023/04/13 02:41:56;;;;;;;27.90;20.10;;;;;;;12.44;100.00;98045.27;105833;1260;68772;-84
2023/04/13 02:44:26;;;;;;;29.00;21.50;;;;;;;12.53;100.00;98043.39;105494;1260;73750;-84
2023/04/13 02:46:57;;;;;;;29.70;23.20;;;;;;;12.58;100.00;98039.78;105808;1258;62832;-84
2023/04/13 02:49:25;;;;;;;34.70;24.00;;;;;;;12.67;100.00;98037.48;105830;1258;60553;-83
2023/04/13 02:52:11;;;;;;;30.70;20.60;;;;;;;12.66;100.00;98043.05;105738;1262;73928;-85
2023/04/13 02:54:45;;;;;;;23.00;19.40;;;;;;;12.76;100.00;98048.27;106493;1260;68763;-80
2023/04/13 02:57:14;;;;;;;29.90;19.70;;;;;;;12.82;100.00;98057.22;107570;1257;70603;-81
2023/04/13 02:59:42;;;;;;;34.10;20.60;;;;;;;13.09;100.00;98069.73;106645;1258;61483;-83
2023/04/13 03:02:16;;;;;;;22.70;18.90;;;;;;;13.13;100.00;98077.89;105653;1258;60524;-83
2023/04/13 03:04:46;;;;;;;21.40;18.50;;;;;;;13.47;100.00;98082.30;105896;1263;74668;-84
2023/04/13 03:07:16;;;;;;;21.70;16.10;;;;;;;13.21;100.00;98079.77;105983;1257;165471;-84
2023/04/13 03:09:47;;;;;;;24.00;18.20;;;;;;;11.80;100.00;98073.89;106022;1263;73483;-84
2023/04/13 03:12:16;;;;;;;23.90;18.40;;;;;;;11.71;100.00;98071.27;105752;1260;61772;-84
2023/04/13 03:14:45;;;;;;;23.20;17.30;;;;;;;12.29;100.00;98075.20;105988;1257;60683;-84
2023/04/13 03:17:15;;;;;;;29.70;18.50;;;;;;;11.77;100.00;98070.77;105895;1260;74569;-84
2023/04/13 03:19:48;;;;;;;27.40;20.40;;;;;;;11.81;100.00;98076.20;106045;1260;68504;-84
2023/04/13 03:22:18;;;;;;;30.90;21.30;;;;;;;11.58;100.00;98074.61;105993;1262;74947;-85
2023/04/13 03:24:46;;;;;;;29.00;23.80;;;;;;;11.68;100.00;98075.63;105788;1260;62657;-85
2023/04/13 03:27:25;;;;;;;28.60;22.70;;;;;;;11.66;100.00;98079.36;105977;1257;61236;-84
2023/04/13 03:29:54;;;;;;;34.90;25.30;;;;;;;11.80;100.00;98085.30;105966;1262;73839;-84
2023/04/13 03:32:22;;;;;;;;;;;;;;;11.82;100.00;98091.24;106072;1260;68726;-84
2023/04/13 03:34:57;;;;;;;31.80;21.60;;;;;;;11.96;100.00;98092.38;105968;1260;72867;-83
2023/04/13 03:37:31;;;;;;;30.90;22.50;;;;;;;12.00;100.00;98095.01;105804;1258;61212;-83
2023/04/13 03:40:10;;;;;;;28.40;21.80;;;;;;;12.03;100.00;98095.82;106009;1261;61138;-83
2023/04/13 03:42:47;;;;;;;27.70;20.60;;;;;;;12.05;100.00;98096.42;105999;1262;74988;-82
2023/04/13 03:45:18;;;;;;;23.00;18.80;;;;;;;11.93;100.00;98091.45;106006;1257;70242;-83
2023/04/13 03:47:47;;;;;;;;;;;;;;;11.73;100.00;98092.36;105954;1258;72434;-82
2023/04/13 03:50:16;;;;;;;26.50;18.30;;;;;;;11.73;100.00;98092.95;105929;1259;62121;-84
2023/04/13 03:52:45;;;;;;;30.30;18.70;;;;;;;11.95;100.00;98093.02;106013;1258;60446;-83
2023/04/13 03:55:13;;;;;;;29.40;18.80;;;;;;;11.86;100.00;98098.86;105792;1258;73625;-84
2023/04/13 03:57:46;;;;;;;27.20;17.30;;;;;;;11.83;100.00;98104.55;105696;1260;68394;-83
2023/04/13 04:00:17;;;;;;;27.80;18.30;;;;;;;11.89;100.00;98104.82;106012;1262;73534;-83
2023/04/13 04:02:58;;;;;;;26.00;18.10;;;;;;;11.74;100.00;98106.10;105611;1257;61928;-84
2023/04/13 04:05:33;;;;;;;23.10;16.00;;;;;;;11.62;100.00;98109.00;105664;1258;60464;-83
2023/04/13 04:08:06;;;;;;;21.90;17.30;;;;;;;11.64;100.00;98115.26;106029;1262;74830;-84
2023/04/13 04:10:36;;;;;;;21.70;19.00;;;;;;;11.57;100.00;98116.18;105992;1262;69647;-81
2023/04/13 04:13:04;;;;;;;;;;;;;;;11.61;100.00;98113.42;105772;1264;72806;-82
2023/04/13 04:15:38;;;;;;;27.30;18.80;;;;;;;11.59;100.00;98112.17;105698;1260;62399;-82
2023/04/13 04:18:08;;;;;;;22.80;17.30;;;;;;;11.51;100.00;98111.61;105924;1260;61155;-83
2023/04/13 04:20:38;;;;;;;25.10;18.00;;;;;;;11.47;100.00;98114.10;105820;1263;74124;-84
2023/04/13 04:23:09;;;;;;;24.00;20.50;;;;;;;11.69;100.00;98116.18;105909;1260;69141;-82
2023/04/13 04:25:45;;;;;;;30.40;21.30;;;;;;;11.63;100.00;98119.64;105753;1264;73253;-83
2023/04/13 04:28:16;;;;;;;36.40;21.60;;;;;;;11.57;100.00;98122.46;105871;1258;62621;-83
2023/04/13 04:30:53;;;;;;;46.30;32.50;;;;;;;11.63;100.00;98124.67;105756;1263;60667;-82
2023/04/13 04:33:22;;;;;;;43.90;33.20;;;;;;;11.76;100.00;98127.30;105937;1260;74924;-84
2023/04/13 04:35:51;;;;;;;38.70;29.60;;;;;;;11.81;100.00;98128.60;105888;1261;67207;-85
2023/04/13 04:38:25;;;;;;;38.80;28.30;;;;;;;11.82;100.00;98134.34;105897;1262;73097;-84
2023/04/13 04:40:56;;;;;;;41.10;30.60;;;;;;;11.81;100.00;98136.36;105820;1260;62282;-84
2023/04/13 04:43:26;;;;;;;37.50;29.00;;;;;;;11.97;100.00;98143.89;105579;1264;61156;-85
2023/04/13 04:45:56;;;;;;;34.10;25.20;;;;;;;11.96;100.00;98138.46;105793;1263;74134;-84
2023/04/13 04:48:25;;;;;;;35.40;25.30;;;;;;;12.10;100.00;98139.64;105867;1262;68903;-83
2023/04/13 04:51:07;;;;;;;40.50;30.20;;;;;;;11.69;100.00;98139.20;105827;1262;73282;-84
2023/04/13 04:53:37;;;;;;;37.40;27.20;;;;;;;11.67;100.00;98137.41;106251;1260;62323;-84
2023/04/13 04:56:06;;;;;;;34.30;26.70;;;;;;;11.74;100.00;98133.42;106399;1258;60972;-84
2023/04/13 04:58:50;;;;;;;28.90;22.10;;;;;;;11.69;100.00;98137.59;106409;1262;74704;-84
2023/04/13 05:01:25;;;;;;;36.70;25.20;;;;;;;11.52;100.00;98135.73;105819;1260;68920;-84
2023/04/13 05:04:00;;;;;;;35.30;25.10;;;;;;;11.41;100.00;98140.34;105675;1257;72098;-84
2023/04/13 05:06:33;;;;;;;44.10;26.60;;;;;;;11.60;100.00;98143.06;105916;1258;61806;-85
2023/04/13 05:09:05;;;;;;;40.50;27.20;;;;;;;12.59;100.00;98145.59;105886;1261;60674;-83
2023/04/13 05:11:35;;;;;;;32.80;24.00;;;;;;;12.87;100.00;98150.39;106155;1262;73823;-84
2023/04/13 05:14:04;;;;;;;34.20;24.30;;;;;;;12.75;100.00;98149.69;106026;1260;69607;-84
2023/04/13 05:16:34;;;;;;;25.10;19.40;;;;;;;12.75;100.00;98142.71;105652;1266;72858;-83
2023/04/13 05:19:11;;;;;;;26.70;20.00;;;;;;;12.96;100.00;98146.20;106070;1262;62784;-83
2023/04/13 05:22:02;;;;;;;35.10;20.00;;;;;;;12.81;100.00;98141.52;106037;1260;60429;-84
2023/04/13 05:24:37;;;;;;;32.20;23.20;;;;;;;13.03;100.00;98142.33;106046;1262;74943;-83
2023/04/13 05:27:10;;;;;;;31.70;26.00;;;;;;;13.10;100.00;98143.73;105999;1260;69440;-84
2023/04/13 05:29:39;;;;;;;36.00;25.70;;;;;;;12.99;100.00;98138.64;105894;1258;72656;-83
2023/04/13 05:32:08;;;;;;;36.40;28.50;;;;;;;12.93;100.00;98134.86;106346;1259;61795;-82
2023/04/13 05:34:37;;;;;;;39.50;29.80;;;;;;;13.17;100.00;98130.81;106034;1263;60440;-84
2023/04/13 05:37:20;;;;;;;43.80;31.10;;;;;;;13.30;100.00;98130.89;106413;1261;74894;-83
2023/04/13 05:39:48;;;;;;;35.90;25.80;;;;;;;12.81;100.00;98124.52;106081;1260;68603;-84
2023/04/13 05:42:19;;;;;;;33.80;26.00;;;;;;;13.12;100.00;98127.73;106129;1260;71563;-83
2023/04/13 05:44:51;;;;;;;26.70;19.60;;;;;;;13.45;100.00;98133.61;106180;1259;62033;-82
2023/04/13 05:47:20;;;;;;;49.40;33.90;;;;;;;13.72;100.00;98143.79;106097;1262;60415;-84
2023/04/13 05:49:51;;;;;;;43.40;28.80;;;;;;;13.97;100.00;98144.16;106277;1262;72340;-82
2023/04/13 05:52:21;;;;;;;32.30;24.70;;;;;;;13.80;100.00;98148.13;106246;1260;69468;-82
2023/04/13 05:54:50;;;;;;;27.90;21.60;;;;;;;13.76;100.00;98141.86;106028;1260;73733;-81
2023/04/13 05:57:21;;;;;;;30.60;23.50;;;;;;;13.74;100.00;98133.90;105913;1260;62035;-83
2023/04/13 05:59:52;;;;;;;30.80;22.20;;;;;;;13.60;100.00;98128.73;105875;1258;60457;-84
2023/04/13 06:02:26;;;;;;;34.50;21.70;;;;;;;13.50;100.00;98130.27;106562;1261;73279;-80
2023/04/13 06:04:56;;;;;;;26.20;20.60;;;;;;;13.87;100.00;98135.30;106915;1260;68585;-80
2023/04/13 06:07:26;;;;;;;29.30;22.10;;;;;;;13.73;100.00;98135.09;106375;1263;71731;-83
2023/04/13 06:09:55;;;;;;;27.50;20.80;;;;;;;13.60;100.00;98134.69;106016;1260;62825;-84
2023/04/13 06:12:31;;;;;;;25.10;19.30;;;;;;;13.98;100.00;98138.73;106024;1258;61157;-82
2023/04/13 06:15:01;;;;;;;30.30;19.10;;;;;;;14.29;100.00;98146.66;105985;1261;73893;-84
2023/04/13 06:17:30;;;;;;;22.40;16.80;;;;;;;14.59;100.00;98148.75;105845;1260;69726;-82
2023/04/13 06:19:58;;;;;;;;;;;;;;;14.32;100.00;98151.26;105934;1262;73285;-83
2023/04/13 06:22:29;;;;;;;31.70;22.00;;;;;;;14.27;100.00;98162.78;106132;1261;62215;-83
2023/04/13 06:24:58;;;;;;;40.10;25.20;;;;;;;14.43;100.00;98165.77;105918;1257;60540;-85
2023/04/13 06:27:32;;;;;;;41.00;25.90;;;;;;;14.57;100.00;98168.02;105748;1263;74804;-82
2023/04/13 06:30:01;;;;;;;45.20;28.60;;;;;;;14.51;100.00;98168.03;105786;1263;68582;-82
2023/04/13 06:32:32;;;;;;;59.60;32.70;;;;;;;14.46;100.00;98168.97;105674;1263;73263;-82
2023/04/13 06:35:02;;;;;;;51.70;33.30;;;;;;;14.43;100.00;98170.13;106005;1261;61307;-84
2023/04/13 06:37:34;;;;;;;43.40;27.20;;;;;;;14.65;100.00;98172.50;106069;1260;61100;-84
2023/04/13 06:40:11;;;;;;;28.20;20.10;;;;;;;14.64;100.00;98176.85;106002;1260;74310;-84
2023/04/13 06:42:46;;;;;;;23.70;17.70;;;;;;;14.56;100.00;98183.61;105708;1260;69941;-84
2023/04/13 06:45:29;;;;;;;24.60;15.80;;;;;;;14.37;100.00;98183.02;105979;1258;72487;-84
2023/04/13 06:47:57;;;;;;;22.90;18.10;;;;;;;14.50;100.00;98182.48;105761;1257;62852;-84
2023/04/13 06:50:26;;;;;;;26.50;19.20;;;;;;;14.56;100.00;98182.70;105747;1264;60509;-84
2023/04/13 06:52:57;;;;;;;39.00;26.30;;;;;;;14.45;100.00;98185.91;105791;1265;74371;-83
2023/04/13 06:55:27;;;;;;;49.20;30.60;;;;;;;14.66;100.00;98189.49;105715;1263;69354;-85
2023/04/13 06:57:57;;;;;;;34.30;21.30;;;;;;;14.72;100.00;98189.55;106008;1270;73249;-82
2023/04/13 07:00:26;;;;;;;33.90;22.60;;;;;;;14.86;100.00;98187.23;106008;1261;61573;-83
2023/04/13 07:02:59;;;;;;;29.40;22.90;;;;;;;14.88;100.00;98191.68;105842;1260;60466;-83
2023/04/13 07:05:28;;;;;;;32.60;22.30;;;;;;;14.92;100.00;98195.52;105778;1262;74397;-84
2023/04/13 07:08:01;;;;;;;41.40;26.30;;;;;;;14.94;100.00;98197.66;105680;1257;68841;-84
2023/04/13 07:10:30;;;;;;;36.40;25.00;;;;;;;14.84;100.00;98204.41;105972;1262;73537;-84
2023/04/13 07:13:01;;;;;;;37.20;25.00;;;;;;;14.60;100.00;98205.33;105773;1260;62748;-83
2023/04/13 07:15:31;;;;;;;35.70;23.70;;;;;;;14.48;100.00;98204.55;106009;1260;60544;-84
2023/04/13 07:17:59;;;;;;;32.10;22.50;;;;;;;14.08;100.00;98204.18;105872;1262;73686;-83
2023/04/13 07:20:33;;;;;;;25.10;17.30;;;;;;;14.30;100.00;98204.86;105754;1258;67828;-82
2023/04/13 07:23:02;;;;;;;29.00;19.70;;;;;;;14.82;100.00;98209.52;106000;1262;73467;-84
2023/04/13 07:25:33;;;;;;;;;;;;;;;14.40;100.00;98209.50;105911;1258;61339;-83
2023/04/13 07:28:01;;;;;;;26.90;15.90;;;;;;;13.78;100.00;98207.54;106114;1262;60309;-82
2023/04/13 07:30:30;;;;;;;20.50;16.90;;;;;;;13.91;100.00;98208.58;106080;1260;74888;-84
2023/04/13 07:32:59;;;;;;;31.80;18.50;;;;;;;14.10;100.00;98206.37;106428;1257;69831;-83
2023/04/13 07:35:28;;;;;;;20.30;15.40;;;;;;;13.88;100.00;98210.81;106540;1262;73740;-84
2023/04/13 07:38:00;;;;;;;25.20;15.80;;;;;;;13.71;100.00;98212.58;105952;1263;60405;-83
2023/04/13 07:40:28;;;;;;;30.00;17.20;;;;;;;13.72;100.00;98216.80;106042;1257;60438;-84
2023/04/13 07:42:57;;;;;;;24.60;15.80;;;;;;;13.97;100.00;98217.88;106149;1263;74123;-84
2023/04/13 07:45:30;;;;;;;26.30;16.10;;;;;;;13.99;100.00;98213.88;106083;1262;67336;-83
2023/04/13 07:47:59;;;;;;;24.20;17.10;;;;;;;13.71;100.00;98209.96;105726;1263;72902;-84
2023/04/13 07:50:28;;;;;;;25.50;16.10;;;;;;;13.71;100.00;98206.73;105908;1258;62848;-85
2023/04/13 07:52:58;;;;;;;27.80;19.70;;;;;;;13.80;100.00;98203.34;105829;1257;61449;-83
2023/04/13 07:55:27;;;;;;;32.80;23.20;;;;;;;14.11;100.00;98203.58;105843;1263;74220;-84
2023/04/13 07:57:58;;;;;;;33.30;22.60;;;;;;;13.91;100.00;98200.54;105900;1270;67817;-82
2023/04/13 08:00:27;;;;;;;28.00;22.10;;;;;;;14.03;100.00;98201.00;105831;1259;73475;-84
2023/04/13 08:02:57;;;;;;;37.80;23.80;;;;;;;14.39;100.00;98205.42;105983;1260;61992;-83
2023/04/13 08:05:30;;;;;;;36.90;23.60;;;;;;;14.56;100.00;98208.80;105724;1264;61384;-85
2023/04/13 08:07:59;;;;;;;30.40;22.50;;;;;;;14.43;100.00;98209.06;105882;1258;73046;-84
2023/04/13 08:10:27;;;;;;;35.60;24.80;;;;;;;14.61;100.00;98211.23;105872;1263;69719;-84
2023/04/13 08:12:59;;;;;;;35.40;25.70;;;;;;;14.52;100.00;98212.54;106170;1262;73539;-85
2023/04/13 08:15:28;;;;;;;27.90;18.50;;;;;;;14.32;100.00;98215.45;106270;1263;61884;-84
2023/04/13 08:17:58;;;;;;;25.00;17.40;;;;;;;14.41;100.00;98214.59;106429;1258;60975;-86
2023/04/13 08:20:28;;;;;;;26.50;18.70;;;;;;;14.75;100.00;98217.88;106413;1262;74641;-85
2023/04/13 08:23:00;;;;;;;27.30;17.50;;;;;;;14.61;100.00;98220.74;106152;1258;69307;-85
2023/04/13 08:25:28;;;;;;;23.40;16.30;;;;;;;14.50;100.00;98229.01;105929;1257;72717;-86
2023/04/13 08:27:57;;;;;;;28.70;17.30;;;;;;;14.54;100.00;98240.36;106033;1263;62953;-85
2023/04/13 08:30:31;;;;;;;27.10;17.40;;;;;;;14.55;100.00;98236.34;106008;1257;60447;-86
2023/04/13 08:33:02;;;;;;;26.40;19.10;;;;;;;14.78;100.00;98232.52;106010;1264;72926;-84
2023/04/13 08:35:31;;;;;;;26.40;19.10;;;;;;;15.19;100.00;98228.15;105961;1257;69263;-85
2023/04/13 08:38:01;;;;;;;26.10;17.10;;;;;;;15.36;100.00;98232.44;105914;1263;71621;-86
2023/04/13 08:40:34;;;;;;;27.00;16.70;;;;;;;15.43;100.00;98236.95;105883;1260;62832;-86
2023/04/13 08:43:04;;;;;;;23.70;16.90;;;;;;;15.16;100.00;98247.55;105770;1263;61189;-84
2023/04/13 08:45:40;;;;;;;25.50;16.80;;;;;;;15.03;100.00;98247.59;106051;1257;73755;-84
2023/04/13 08:48:12;;;;;;;26.60;18.30;;;;;;;14.74;100.00;98246.84;105679;1264;67472;-85
2023/04/13 08:50:44;;;;;;;28.50;15.40;;;;;;;14.76;100.00;98246.48;105852;1263;73625;-86
2023/04/13 08:53:15;;;;;;;27.90;19.30;;;;;;;14.79;100.00;98248.98;106387;1257;63160;-84
2023/04/13 08:55:47;;;;;;;26.50;18.40;;;;;;;14.53;100.00;98245.17;106045;1263;60498;-83
2023/04/13 08:58:18;;;;;;;26.30;16.00;;;;;;;14.90;100.00;98247.14;105787;1258;74728;-86
2023/04/13 09:00:48;;;;;;;28.70;19.60;;;;;;;14.77;100.00;98248.23;105863;1263;68490;-84
2023/04/13 09:03:22;;;;;;;30.60;19.60;;;;;;;14.87;100.00;98248.00;105885;1263;73729;-85
2023/04/13 09:05:56;;;;;;;27.90;19.70;;;;;;;15.16;100.00;98254.83;106279;1261;62071;-85
2023/04/13 09:08:34;;;;;;;29.70;18.00;;;;;;;15.01;100.00;98253.15;105813;1257;60633;-86
2023/04/13 09:11:04;;;;;;;25.40;15.30;;;;;;;14.81;100.00;98251.70;105878;1262;74491;-84
2023/04/13 09:13:33;;;;;;;29.10;15.40;;;;;;;14.48;100.00;98241.55;106085;1262;69217;-86
2023/04/13 09:16:02;;;;;;;28.00;16.60;;;;;;;14.01;100.00;98242.68;106194;1257;72656;-85
2023/04/13 09:18:56;;;;;;;40.20;20.80;;;;;;;14.05;100.00;98243.03;106506;1257;60909;-86
2023/04/13 09:21:39;;;;;;;39.50;22.20;;;;;;;14.14;100.00;98246.67;106597;1257;60630;-84
2023/04/13 09:24:09;;;;;;;30.50;17.90;;;;;;;14.29;100.00;98245.70;106791;1257;74378;-85
2023/04/13 09:26:46;;;;;;;23.40;15.20;;;;;;;14.56;100.00;98248.19;106830;1257;68474;-85
2023/04/13 09:29:18;;;;;;;17.50;12.60;;;;;;;14.62;100.00;98246.95;107214;1262;72527;-85
2023/04/13 09:31:47;;;;;;;17.20;12.60;;;;;;;14.59;100.00;98247.15;106532;1258;60954;-85
2023/04/13 09:34:26;;;;;;;17.60;11.60;;;;;;;14.64;100.00;98248.27;106415;1263;60424;-86
2023/04/13 09:36:57;;;;;;;16.50;11.20;;;;;;;14.68;100.00;98248.36;106319;1264;73971;-85
2023/04/13 09:39:29;;;;;;;21.00;10.60;;;;;;;15.03;100.00;98254.61;106001;1258;69432;-84
2023/04/13 09:41:58;;;;;;;17.70;10.50;;;;;;;15.02;100.00;98257.66;106330;1257;71051;-84
2023/04/13 09:44:34;;;;;;;18.30;11.40;;;;;;;15.57;100.00;98259.23;106187;1258;62897;-85
2023/04/13 09:47:05;;;;;;;14.90;10.80;;;;;;;15.64;100.00;98257.46;106626;1257;61356;-84
2023/04/13 09:49:37;;;;;;;12.60;9.30;;;;;;;15.64;100.00;98260.42;106210;1263;74677;-84
2023/04/13 09:52:21;;;;;;;17.80;9.30;;;;;;;16.13;100.00;98265.52;106264;1257;68411;-85
2023/04/13 09:54:54;;;;;;;9.60;8.10;;;;;;;16.72;100.00;98277.08;106364;1263;73912;-87
2023/04/13 09:57:27;;;;;;;15.60;9.90;;;;;;;16.85;100.00;98281.46;106474;1257;62942;-85
2023/04/13 09:59:59;;;;;;;37.90;28.20;;;;;;;17.48;100.00;98284.54;108627;1257;61160;-86
2023/04/13 10:02:42;;;;;;;17.20;12.40;;;;;;;17.19;100.00;98285.05;109132;1257;74671;-84
2023/04/13 10:05:12;;;;;;;18.10;13.10;;;;;;;17.51;100.00;98281.48;107086;1264;67884;-85
2023/04/13 10:07:44;;;;;;;24.50;13.00;;;;;;;17.69;99.83;98284.46;106250;1258;72409;-86
2023/04/13 10:10:14;;;;;;;13.70;7.50;;;;;;;17.77;99.83;98279.04;106084;1257;62394;-85
2023/04/13 10:12:47;;;;;;;11.40;7.50;;;;;;;17.67;97.16;98281.14;106374;1258;61549;-84
2023/04/13 10:15:37;;;;;;;7.00;5.60;;;;;;;17.65;95.97;98282.70;106464;1262;73555;-85
2023/04/13 10:18:34;;;;;;;12.70;6.10;;;;;;;17.97;89.22;98287.15;105936;1262;68414;-84
2023/04/13 10:21:03;;;;;;;10.40;7.40;;;;;;;17.66;95.80;98292.96;105922;1263;73774;-83
2023/04/13 10:23:32;;;;;;;;;;;;;;;17.90;96.44;98300.25;105819;1263;62014;-83
2023/04/13 10:26:02;;;;;;;16.10;9.20;;;;;;;17.23;99.98;98298.48;105865;1258;61143;-84
2023/04/13 10:28:49;;;;;;;12.50;8.30;;;;;;;17.27;100.00;98294.98;105966;1261;75704;-83
2023/04/13 10:31:20;;;;;;;13.80;8.40;;;;;;;17.11;100.00;98290.64;105771;1263;69539;-84
2023/04/13 10:33:49;;;;;;;11.90;8.10;;;;;;;16.96;100.00;98296.39;105881;1261;72088;-82
2023/04/13 10:36:17;;;;;;;10.10;7.60;;;;;;;16.83;100.00;98300.60;105885;1263;61698;-83
2023/04/13 10:38:46;;;;;;;13.80;8.80;;;;;;;16.56;100.00;98303.44;105942;1257;61634;-82
2023/04/13 10:41:23;;;;;;;;;;;;;;;16.69;100.00;98303.98;105893;1257;75863;-82
2023/04/13 10:44:01;;;;;;;17.00;9.20;;;;;;;16.55;100.00;98298.27;105894;1262;69863;-83
2023/04/13 10:46:31;;;;;;;;;;;;;;;16.31;100.00;98297.36;105883;1257;73840;-83
2023/04/13 10:49:00;;;;;;;18.80;10.40;;;;;;;16.54;100.00;98296.00;105889;1258;62264;-85
2023/04/13 10:51:39;;;;;;;14.20;9.70;;;;;;;16.17;100.00;98295.34;106001;1258;62414;-84
2023/04/13 10:54:08;;;;;;;18.70;11.40;;;;;;;16.09;100.00;98295.20;105680;1263;74354;-84
2023/04/13 10:56:37;;;;;;;13.40;10.10;;;;;;;16.20;100.00;98298.05;105968;1262;68673;-84
2023/04/13 10:59:06;;;;;;;14.60;10.90;;;;;;;16.08;100.00;98295.84;105935;1263;74551;-84
2023/04/13 11:01:35;;;;;;;15.00;10.20;;;;;;;16.25;100.00;98303.52;105683;1264;61340;-84
2023/04/13 11:04:04;;;;;;;14.10;11.20;;;;;;;16.31;100.00;98302.69;106048;1258;61247;-84
2023/04/13 11:06:37;;;;;;;21.40;18.80;;;;;;;16.46;100.00;98305.90;106000;1263;75643;-85
2023/04/13 11:09:10;;;;;;;16.40;12.10;;;;;;;16.35;100.00;98309.90;105833;1257;69431;-86
2023/04/13 11:11:50;;;;;;;18.50;13.50;;;;;;;16.27;100.00;98307.69;106014;1257;72732;-83
2023/04/13 11:14:25;;;;;;;15.70;11.70;;;;;;;16.45;100.00;98302.73;106634;1257;61963;-85
2023/04/13 11:16:55;;;;;;;14.80;9.40;;;;;;;16.58;100.00;98304.44;106278;1257;61384;-85
2023/04/13 11:19:25;;;;;;;11.80;8.90;;;;;;;16.87;100.00;98308.73;106404;1257;75753;-84
2023/04/13 11:21:58;;;;;;;16.80;9.60;;;;;;;17.24;99.57;98307.04;106452;1258;69564;-84
2023/04/13 11:24:32;;;;;;;18.50;9.20;;;;;;;17.38;99.66;98305.55;106240;1264;71187;-84
2023/04/13 11:27:02;;;;;;;12.90;9.20;;;;;;;17.40;99.43;98308.19;106149;1257;62910;-83
2023/04/13 11:29:31;;;;;;;13.80;8.80;;;;;;;17.65;96.79;98309.83;106226;1257;61459;-83